sensor_id;sensor_type;location;lat;lon;timestamp;P1;durP1;ratioP1;P2;durP2;ratioP2
73136;SDS011;67767;45.636;11.756;2023-04-15T00:01:29;8.73;;;3.83;;
73136;SDS011;67767;45.636;11.756;2023-04-15T00:03:58;7.32;;;3.70;;
73136;SDS011;67767;45.636;11.756;2023-04-15T00:06:23;8.18;;;3.67;;
73136;SDS011;67767;45.636;11.756;2023-04-15T00:08:50;8.20;;;3.80;;
73136;SDS011;67767;45.636;11.756;2023-04-15T00:11:16;6.90;;;3.70;;
73136;SDS011;67767;45.636;11.756;2023-04-15T00:13:42;7.47;;;3.80;;
73136;SDS011;67767;45.636;11.756;2023-04-15T00:16:08;6.10;;;3.10;;
73136;SDS011;67767;45.636;11.756;2023-04-15T00:18:34;8.70;;;3.77;;
73136;SDS011;67767;45.636;11.756;2023-04-15T00:21:01;7.88;;;3.70;;
73136;SDS011;67767;45.636;11.756;2023-04-15T00:23:27;8.50;;;3.75;;
73136;SDS011;67767;45.636;11.756;2023-04-15T00:25:53;6.45;;;3.67;;
73136;SDS011;67767;45.636;11.756;2023-04-15T00:28:19;6.63;;;3.60;;
73136;SDS011;67767;45.636;11.756;2023-04-15T00:30:45;7.32;;;3.60;;
73136;SDS011;67767;45.636;11.756;2023-04-15T00:33:11;8.63;;;4.03;;
73136;SDS011;67767;45.636;11.756;2023-04-15T00:35:38;7.32;;;4.18;;
73136;SDS011;67767;45.636;11.756;2023-04-15T00:38:04;7.47;;;4.20;;
73136;SDS011;67767;45.636;11.756;2023-04-15T00:40:32;7.35;;;4.30;;
73136;SDS011;67767;45.636;11.756;2023-04-15T00:42:57;7.87;;;4.57;;
73136;SDS011;67767;45.636;11.756;2023-04-15T00:45:23;8.60;;;4.73;;
73136;SDS011;67767;45.636;11.756;2023-04-15T00:47:49;7.75;;;4.47;;
73136;SDS011;67767;45.636;11.756;2023-04-15T00:50:15;8.43;;;4.97;;
73136;SDS011;67767;45.636;11.756;2023-04-15T00:52:41;8.60;;;5.60;;
73136;SDS011;67767;45.636;11.756;2023-04-15T00:55:07;8.52;;;5.32;;
73136;SDS011;67767;45.636;11.756;2023-04-15T00:57:33;9.20;;;4.70;;
73136;SDS011;67767;45.636;11.756;2023-04-15T01:00:00;9.20;;;5.00;;
73136;SDS011;67767;45.636;11.756;2023-04-15T01:02:28;8.10;;;4.72;;
73136;SDS011;67767;45.636;11.756;2023-04-15T01:04:55;8.70;;;4.30;;
73136;SDS011;67767;45.636;11.756;2023-04-15T01:07:21;6.97;;;3.87;;
73136;SDS011;67767;45.636;11.756;2023-04-15T01:09:47;8.05;;;4.15;;
73136;SDS011;67767;45.636;11.756;2023-04-15T01:12:13;8.60;;;4.03;;
73136;SDS011;67767;45.636;11.756;2023-04-15T01:14:40;6.93;;;3.80;;
73136;SDS011;67767;45.636;11.756;2023-04-15T01:17:06;7.07;;;3.70;;
73136;SDS011;67767;45.636;11.756;2023-04-15T01:19:31;7.87;;;4.07;;
73136;SDS011;67767;45.636;11.756;2023-04-15T01:21:57;7.10;;;3.85;;
73136;SDS011;67767;45.636;11.756;2023-04-15T01:24:23;6.57;;;3.80;;
73136;SDS011;67767;45.636;11.756;2023-04-15T01:26:51;7.07;;;3.20;;
73136;SDS011;67767;45.636;11.756;2023-04-15T01:29:18;7.05;;;3.70;;
73136;SDS011;67767;45.636;11.756;2023-04-15T01:31:52;6.83;;;3.53;;
73136;SDS011;67767;45.636;11.756;2023-04-15T01:34:19;7.97;;;3.58;;
73136;SDS011;67767;45.636;11.756;2023-04-15T01:36:46;6.53;;;3.17;;
73136;SDS011;67767;45.636;11.756;2023-04-15T01:39:12;7.38;;;3.20;;
73136;SDS011;67767;45.636;11.756;2023-04-15T01:41:37;9.67;;;3.73;;
73136;SDS011;67767;45.636;11.756;2023-04-15T01:44:04;7.05;;;3.40;;
73136;SDS011;67767;45.636;11.756;2023-04-15T01:46:31;6.70;;;3.20;;
73136;SDS011;67767;45.636;11.756;2023-04-15T01:48:56;7.30;;;3.07;;
73136;SDS011;67767;45.636;11.756;2023-04-15T01:51:22;5.75;;;2.90;;
73136;SDS011;67767;45.636;11.756;2023-04-15T01:53:48;6.43;;;2.70;;
73136;SDS011;67767;45.636;11.756;2023-04-15T01:56:13;7.38;;;3.00;;
73136;SDS011;67767;45.636;11.756;2023-04-15T01:58:40;7.10;;;2.70;;
73136;SDS011;67767;45.636;11.756;2023-04-15T02:01:05;6.10;;;3.03;;
73136;SDS011;67767;45.636;11.756;2023-04-15T02:03:31;6.60;;;2.80;;
73136;SDS011;67767;45.636;11.756;2023-04-15T02:05:57;8.23;;;3.10;;
73136;SDS011;67767;45.636;11.756;2023-04-15T02:08:23;6.72;;;3.15;;
73136;SDS011;67767;45.636;11.756;2023-04-15T02:10:48;9.50;;;3.97;;
73136;SDS011;67767;45.636;11.756;2023-04-15T02:13:14;10.18;;;5.28;;
73136;SDS011;67767;45.636;11.756;2023-04-15T02:15:45;12.40;;;6.53;;
73136;SDS011;67767;45.636;11.756;2023-04-15T02:18:12;12.60;;;7.00;;
73136;SDS011;67767;45.636;11.756;2023-04-15T02:20:38;13.20;;;7.47;;
73136;SDS011;67767;45.636;11.756;2023-04-15T02:23:03;10.48;;;6.38;;
73136;SDS011;67767;45.636;11.756;2023-04-15T02:25:31;10.23;;;5.90;;
73136;SDS011;67767;45.636;11.756;2023-04-15T02:27:57;10.77;;;5.90;;
73136;SDS011;67767;45.636;11.756;2023-04-15T02:30:22;8.60;;;4.38;;
73136;SDS011;67767;45.636;11.756;2023-04-15T02:32:49;8.00;;;4.17;;
73136;SDS011;67767;45.636;11.756;2023-04-15T02:35:15;8.10;;;4.03;;
73136;SDS011;67767;45.636;11.756;2023-04-15T02:37:43;7.25;;;3.40;;
73136;SDS011;67767;45.636;11.756;2023-04-15T02:40:10;7.63;;;3.40;;
73136;SDS011;67767;45.636;11.756;2023-04-15T02:42:39;7.13;;;3.43;;
73136;SDS011;67767;45.636;11.756;2023-04-15T02:45:06;6.47;;;3.00;;
73136;SDS011;67767;45.636;11.756;2023-04-15T02:47:33;7.40;;;3.05;;
73136;SDS011;67767;45.636;11.756;2023-04-15T02:50:00;6.25;;;2.78;;
73136;SDS011;67767;45.636;11.756;2023-04-15T02:52:29;5.97;;;2.97;;
73136;SDS011;67767;45.636;11.756;2023-04-15T02:54:55;6.53;;;2.77;;
73136;SDS011;67767;45.636;11.756;2023-04-15T02:57:25;6.28;;;2.80;;
73136;SDS011;67767;45.636;11.756;2023-04-15T02:59:52;6.80;;;2.60;;
73136;SDS011;67767;45.636;11.756;2023-04-15T03:02:18;6.07;;;3.00;;
73136;SDS011;67767;45.636;11.756;2023-04-15T03:04:43;5.93;;;2.78;;
73136;SDS011;67767;45.636;11.756;2023-04-15T03:07:09;5.50;;;2.67;;
73136;SDS011;67767;45.636;11.756;2023-04-15T03:09:34;8.10;;;3.27;;
73136;SDS011;67767;45.636;11.756;2023-04-15T03:12:00;5.90;;;2.70;;
73136;SDS011;67767;45.636;11.756;2023-04-15T03:14:26;6.85;;;2.67;;
73136;SDS011;67767;45.636;11.756;2023-04-15T03:16:52;7.30;;;2.40;;
73136;SDS011;67767;45.636;11.756;2023-04-15T03:19:18;5.30;;;2.50;;
73136;SDS011;67767;45.636;11.756;2023-04-15T03:21:43;6.00;;;2.83;;
73136;SDS011;67767;45.636;11.756;2023-04-15T03:24:09;6.03;;;2.60;;
73136;SDS011;67767;45.636;11.756;2023-04-15T03:26:35;4.90;;;2.47;;
73136;SDS011;67767;45.636;11.756;2023-04-15T03:29:01;7.18;;;2.70;;
73136;SDS011;67767;45.636;11.756;2023-04-15T03:31:26;7.37;;;2.57;;
73136;SDS011;67767;45.636;11.756;2023-04-15T03:33:52;5.18;;;2.53;;
73136;SDS011;67767;45.636;11.756;2023-04-15T03:36:18;6.27;;;2.67;;
73136;SDS011;67767;45.636;11.756;2023-04-15T03:38:43;7.88;;;2.60;;
73136;SDS011;67767;45.636;11.756;2023-04-15T03:41:09;7.35;;;2.83;;
73136;SDS011;67767;45.636;11.756;2023-04-15T03:43:35;6.07;;;2.70;;
73136;SDS011;67767;45.636;11.756;2023-04-15T03:46:01;6.17;;;2.67;;
73136;SDS011;67767;45.636;11.756;2023-04-15T03:48:26;6.47;;;2.90;;
73136;SDS011;67767;45.636;11.756;2023-04-15T03:50:52;7.30;;;3.00;;
73136;SDS011;67767;45.636;11.756;2023-04-15T03:53:18;8.10;;;3.40;;
73136;SDS011;67767;45.636;11.756;2023-04-15T03:55:45;12.27;;;3.40;;
73136;SDS011;67767;45.636;11.756;2023-04-15T03:58:11;7.60;;;3.70;;
73136;SDS011;67767;45.636;11.756;2023-04-15T04:00:37;7.68;;;3.47;;
73136;SDS011;67767;45.636;11.756;2023-04-15T04:03:03;6.78;;;3.50;;
73136;SDS011;67767;45.636;11.756;2023-04-15T04:05:29;6.83;;;3.23;;
73136;SDS011;67767;45.636;11.756;2023-04-15T04:07:55;8.23;;;2.90;;
73136;SDS011;67767;45.636;11.756;2023-04-15T04:10:20;8.00;;;3.45;;
73136;SDS011;67767;45.636;11.756;2023-04-15T04:12:46;7.30;;;3.50;;
73136;SDS011;67767;45.636;11.756;2023-04-15T04:15:12;7.25;;;3.30;;
73136;SDS011;67767;45.636;11.756;2023-04-15T04:17:37;9.60;;;3.50;;
73136;SDS011;67767;45.636;11.756;2023-04-15T04:20:03;6.43;;;2.92;;
73136;SDS011;67767;45.636;11.756;2023-04-15T04:22:29;6.60;;;3.30;;
73136;SDS011;67767;45.636;11.756;2023-04-15T04:24:55;6.17;;;2.93;;
73136;SDS011;67767;45.636;11.756;2023-04-15T04:27:23;6.68;;;3.30;;
73136;SDS011;67767;45.636;11.756;2023-04-15T04:29:49;9.43;;;3.33;;
73136;SDS011;67767;45.636;11.756;2023-04-15T04:32:15;7.03;;;3.07;;
73136;SDS011;67767;45.636;11.756;2023-04-15T04:34:40;6.75;;;3.47;;
73136;SDS011;67767;45.636;11.756;2023-04-15T04:37:06;10.90;;;4.10;;
73136;SDS011;67767;45.636;11.756;2023-04-15T04:39:32;9.07;;;3.83;;
73136;SDS011;67767;45.636;11.756;2023-04-15T04:41:57;8.53;;;3.40;;
73136;SDS011;67767;45.636;11.756;2023-04-15T04:44:23;8.48;;;3.72;;
73136;SDS011;67767;45.636;11.756;2023-04-15T04:46:49;10.80;;;3.67;;
73136;SDS011;67767;45.636;11.756;2023-04-15T04:49:14;6.83;;;3.33;;
73136;SDS011;67767;45.636;11.756;2023-04-15T04:51:40;7.75;;;3.50;;
73136;SDS011;67767;45.636;11.756;2023-04-15T04:54:06;7.07;;;3.50;;
73136;SDS011;67767;45.636;11.756;2023-04-15T04:56:31;6.95;;;3.03;;
73136;SDS011;67767;45.636;11.756;2023-04-15T04:58:58;10.35;;;3.85;;
73136;SDS011;67767;45.636;11.756;2023-04-15T05:01:24;8.23;;;4.20;;
73136;SDS011;67767;45.636;11.756;2023-04-15T05:03:51;8.10;;;3.40;;
73136;SDS011;67767;45.636;11.756;2023-04-15T05:06:17;6.70;;;3.20;;
73136;SDS011;67767;45.636;11.756;2023-04-15T05:08:42;7.97;;;3.20;;
73136;SDS011;67767;45.636;11.756;2023-04-15T05:11:08;10.15;;;3.78;;
73136;SDS011;67767;45.636;11.756;2023-04-15T05:13:34;9.20;;;3.63;;
73136;SDS011;67767;45.636;11.756;2023-04-15T05:16:02;7.27;;;3.90;;
73136;SDS011;67767;45.636;11.756;2023-04-15T05:18:29;7.53;;;3.20;;
73136;SDS011;67767;45.636;11.756;2023-04-15T05:20:55;7.53;;;3.55;;
73136;SDS011;67767;45.636;11.756;2023-04-15T05:23:21;38.37;;;6.30;;
73136;SDS011;67767;45.636;11.756;2023-04-15T05:25:46;8.47;;;3.13;;
73136;SDS011;67767;45.636;11.756;2023-04-15T05:28:12;7.00;;;3.07;;
73136;SDS011;67767;45.636;11.756;2023-04-15T05:30:38;6.13;;;2.40;;
73136;SDS011;67767;45.636;11.756;2023-04-15T05:33:03;6.88;;;2.60;;
73136;SDS011;67767;45.636;11.756;2023-04-15T05:35:29;6.90;;;2.40;;
73136;SDS011;67767;45.636;11.756;2023-04-15T05:37:55;10.03;;;3.00;;
73136;SDS011;67767;45.636;11.756;2023-04-15T05:40:20;5.90;;;2.80;;
73136;SDS011;67767;45.636;11.756;2023-04-15T05:42:46;7.45;;;3.60;;
73136;SDS011;67767;45.636;11.756;2023-04-15T05:45:12;6.17;;;3.00;;
73136;SDS011;67767;45.636;11.756;2023-04-15T05:47:38;6.25;;;3.35;;
73136;SDS011;67767;45.636;11.756;2023-04-15T05:50:04;7.13;;;3.77;;
73136;SDS011;67767;45.636;11.756;2023-04-15T05:52:30;6.35;;;3.70;;
73136;SDS011;67767;45.636;11.756;2023-04-15T05:54:56;8.25;;;4.60;;
73136;SDS011;67767;45.636;11.756;2023-04-15T05:57:22;8.93;;;4.40;;
73136;SDS011;67767;45.636;11.756;2023-04-15T05:59:47;8.48;;;4.68;;
73136;SDS011;67767;45.636;11.756;2023-04-15T06:02:15;9.60;;;4.55;;
73136;SDS011;67767;45.636;11.756;2023-04-15T06:04:41;12.33;;;5.20;;
73136;SDS011;67767;45.636;11.756;2023-04-15T06:07:07;11.57;;;4.95;;
73136;SDS011;67767;45.636;11.756;2023-04-15T06:09:32;9.53;;;5.10;;
73136;SDS011;67767;45.636;11.756;2023-04-15T06:11:58;10.68;;;5.05;;
73136;SDS011;67767;45.636;11.756;2023-04-15T06:14:25;13.57;;;5.45;;
73136;SDS011;67767;45.636;11.756;2023-04-15T06:16:51;9.20;;;5.25;;
73136;SDS011;67767;45.636;11.756;2023-04-15T06:19:17;10.93;;;5.80;;
73136;SDS011;67767;45.636;11.756;2023-04-15T06:21:43;9.25;;;5.38;;
73136;SDS011;67767;45.636;11.756;2023-04-15T06:24:10;11.63;;;5.80;;
73136;SDS011;67767;45.636;11.756;2023-04-15T06:26:36;9.53;;;5.77;;
73136;SDS011;67767;45.636;11.756;2023-04-15T06:29:01;9.82;;;5.93;;
73136;SDS011;67767;45.636;11.756;2023-04-15T06:31:27;14.70;;;6.10;;
73136;SDS011;67767;45.636;11.756;2023-04-15T06:33:53;11.32;;;5.70;;
73136;SDS011;67767;45.636;11.756;2023-04-15T06:36:19;10.27;;;5.63;;
73136;SDS011;67767;45.636;11.756;2023-04-15T06:38:45;8.30;;;5.20;;
73136;SDS011;67767;45.636;11.756;2023-04-15T06:41:10;9.37;;;5.30;;
73136;SDS011;67767;45.636;11.756;2023-04-15T06:43:36;10.55;;;5.50;;
73136;SDS011;67767;45.636;11.756;2023-04-15T06:46:02;9.20;;;5.10;;
73136;SDS011;67767;45.636;11.756;2023-04-15T06:48:28;10.87;;;5.60;;
73136;SDS011;67767;45.636;11.756;2023-04-15T06:50:53;11.30;;;5.60;;
73136;SDS011;67767;45.636;11.756;2023-04-15T06:53:19;9.83;;;5.30;;
73136;SDS011;67767;45.636;11.756;2023-04-15T06:55:46;11.32;;;5.30;;
73136;SDS011;67767;45.636;11.756;2023-04-15T06:58:11;10.25;;;6.25;;
73136;SDS011;67767;45.636;11.756;2023-04-15T07:00:37;11.93;;;5.30;;
73136;SDS011;67767;45.636;11.756;2023-04-15T07:03:03;10.30;;;5.50;;
73136;SDS011;67767;45.636;11.756;2023-04-15T07:05:29;10.00;;;4.97;;
73136;SDS011;67767;45.636;11.756;2023-04-15T07:07:56;9.88;;;4.78;;
73136;SDS011;67767;45.636;11.756;2023-04-15T07:10:22;9.85;;;4.50;;
73136;SDS011;67767;45.636;11.756;2023-04-15T07:12:48;9.93;;;5.63;;
73136;SDS011;67767;45.636;11.756;2023-04-15T07:15:15;10.68;;;4.72;;
73136;SDS011;67767;45.636;11.756;2023-04-15T07:17:40;10.63;;;4.40;;
73136;SDS011;67767;45.636;11.756;2023-04-15T07:20:09;9.13;;;4.20;;
73136;SDS011;67767;45.636;11.756;2023-04-15T07:22:35;8.57;;;4.20;;
73136;SDS011;67767;45.636;11.756;2023-04-15T07:25:01;7.20;;;3.63;;
73136;SDS011;67767;45.636;11.756;2023-04-15T07:27:27;9.33;;;4.53;;
73136;SDS011;67767;45.636;11.756;2023-04-15T07:29:52;11.50;;;4.50;;
73136;SDS011;67767;45.636;11.756;2023-04-15T07:32:18;19.40;;;4.90;;
73136;SDS011;67767;45.636;11.756;2023-04-15T07:34:44;8.95;;;4.57;;
73136;SDS011;67767;45.636;11.756;2023-04-15T07:37:10;7.93;;;4.10;;
73136;SDS011;67767;45.636;11.756;2023-04-15T07:39:36;8.40;;;3.90;;
73136;SDS011;67767;45.636;11.756;2023-04-15T07:42:01;11.18;;;4.45;;
73136;SDS011;67767;45.636;11.756;2023-04-15T07:44:28;6.82;;;3.63;;
73136;SDS011;67767;45.636;11.756;2023-04-15T07:46:54;6.57;;;3.40;;
73136;SDS011;67767;45.636;11.756;2023-04-15T07:49:20;7.50;;;3.92;;
73136;SDS011;67767;45.636;11.756;2023-04-15T07:51:46;7.35;;;3.95;;
73136;SDS011;67767;45.636;11.756;2023-04-15T07:54:13;9.40;;;3.67;;
73136;SDS011;67767;45.636;11.756;2023-04-15T07:56:41;6.75;;;3.42;;
73136;SDS011;67767;45.636;11.756;2023-04-15T07:59:08;8.73;;;3.70;;
73136;SDS011;67767;45.636;11.756;2023-04-15T08:01:34;7.72;;;4.70;;
73136;SDS011;67767;45.636;11.756;2023-04-15T08:04:00;10.18;;;3.83;;
73136;SDS011;67767;45.636;11.756;2023-04-15T08:06:27;12.40;;;3.53;;
73136;SDS011;67767;45.636;11.756;2023-04-15T08:08:52;7.82;;;3.88;;
73136;SDS011;67767;45.636;11.756;2023-04-15T08:11:19;7.03;;;3.20;;
73136;SDS011;67767;45.636;11.756;2023-04-15T08:13:45;7.85;;;4.00;;
73136;SDS011;67767;45.636;11.756;2023-04-15T08:16:21;6.85;;;3.20;;
73136;SDS011;67767;45.636;11.756;2023-04-15T08:18:48;8.43;;;3.20;;
73136;SDS011;67767;45.636;11.756;2023-04-15T08:21:15;7.95;;;3.70;;
73136;SDS011;67767;45.636;11.756;2023-04-15T08:23:43;9.25;;;3.50;;
73136;SDS011;67767;45.636;11.756;2023-04-15T08:26:09;7.32;;;3.90;;
73136;SDS011;67767;45.636;11.756;2023-04-15T08:28:37;7.70;;;3.60;;
73136;SDS011;67767;45.636;11.756;2023-04-15T08:31:03;8.03;;;4.10;;
73136;SDS011;67767;45.636;11.756;2023-04-15T08:33:29;10.23;;;4.68;;
73136;SDS011;67767;45.636;11.756;2023-04-15T08:35:55;9.00;;;3.88;;
73136;SDS011;67767;45.636;11.756;2023-04-15T08:38:21;12.37;;;4.13;;
73136;SDS011;67767;45.636;11.756;2023-04-15T08:40:47;7.80;;;3.23;;
73136;SDS011;67767;45.636;11.756;2023-04-15T08:43:23;7.32;;;2.50;;
73136;SDS011;67767;45.636;11.756;2023-04-15T08:45:53;7.75;;;3.05;;
73136;SDS011;67767;45.636;11.756;2023-04-15T08:48:19;10.00;;;2.90;;
73136;SDS011;67767;45.636;11.756;2023-04-15T08:50:46;9.63;;;2.70;;
73136;SDS011;67767;45.636;11.756;2023-04-15T08:53:13;6.73;;;2.57;;
73136;SDS011;67767;45.636;11.756;2023-04-15T08:55:45;6.78;;;3.20;;
73136;SDS011;67767;45.636;11.756;2023-04-15T08:58:15;8.43;;;2.95;;
73136;SDS011;67767;45.636;11.756;2023-04-15T09:00:42;6.03;;;2.45;;
73136;SDS011;67767;45.636;11.756;2023-04-15T09:03:07;5.87;;;3.20;;
73136;SDS011;67767;45.636;11.756;2023-04-15T09:05:34;9.00;;;2.90;;
73136;SDS011;67767;45.636;11.756;2023-04-15T09:08:01;6.10;;;3.10;;
73136;SDS011;67767;45.636;11.756;2023-04-15T09:10:27;11.93;;;4.10;;
73136;SDS011;67767;45.636;11.756;2023-04-15T09:12:54;7.67;;;3.20;;
73136;SDS011;67767;45.636;11.756;2023-04-15T09:15:20;10.25;;;3.38;;
73136;SDS011;67767;45.636;11.756;2023-04-15T09:17:48;9.48;;;3.50;;
73136;SDS011;67767;45.636;11.756;2023-04-15T09:20:14;10.10;;;3.23;;
73136;SDS011;67767;45.636;11.756;2023-04-15T09:22:44;8.82;;;4.20;;
73136;SDS011;67767;45.636;11.756;2023-04-15T09:27:47;9.95;;;3.92;;
73136;SDS011;67767;45.636;11.756;2023-04-15T09:30:13;7.18;;;2.60;;
73136;SDS011;67767;45.636;11.756;2023-04-15T09:32:47;6.30;;;3.57;;
73136;SDS011;67767;45.636;11.756;2023-04-15T09:35:18;5.95;;;3.13;;
73136;SDS011;67767;45.636;11.756;2023-04-15T09:37:45;9.75;;;3.42;;
73136;SDS011;67767;45.636;11.756;2023-04-15T09:40:11;7.97;;;3.33;;
73136;SDS011;67767;45.636;11.756;2023-04-15T09:42:53;6.45;;;3.35;;
73136;SDS011;67767;45.636;11.756;2023-04-15T09:45:20;7.72;;;3.25;;
73136;SDS011;67767;45.636;11.756;2023-04-15T09:47:46;8.70;;;3.63;;
73136;SDS011;67767;45.636;11.756;2023-04-15T09:50:12;16.67;;;3.80;;
73136;SDS011;67767;45.636;11.756;2023-04-15T09:52:42;6.95;;;3.08;;
73136;SDS011;67767;45.636;11.756;2023-04-15T09:55:09;7.75;;;3.10;;
73136;SDS011;67767;45.636;11.756;2023-04-15T09:57:35;5.85;;;2.40;;
73136;SDS011;67767;45.636;11.756;2023-04-15T10:00:05;8.60;;;3.43;;
73136;SDS011;67767;45.636;11.756;2023-04-15T10:02:36;6.15;;;2.75;;
73136;SDS011;67767;45.636;11.756;2023-04-15T10:05:03;12.85;;;4.68;;
73136;SDS011;67767;45.636;11.756;2023-04-15T10:07:30;8.55;;;3.83;;
73136;SDS011;67767;45.636;11.756;2023-04-15T10:09:56;6.22;;;3.20;;
73136;SDS011;67767;45.636;11.756;2023-04-15T10:12:23;8.47;;;3.33;;
73136;SDS011;67767;45.636;11.756;2023-04-15T10:15:02;7.38;;;2.88;;
73136;SDS011;67767;45.636;11.756;2023-04-15T10:17:29;7.13;;;2.78;;
73136;SDS011;67767;45.636;11.756;2023-04-15T10:20:01;4.72;;;2.50;;
73136;SDS011;67767;45.636;11.756;2023-04-15T10:22:28;6.65;;;3.22;;
73136;SDS011;67767;45.636;11.756;2023-04-15T10:24:55;7.17;;;3.50;;
73136;SDS011;67767;45.636;11.756;2023-04-15T10:27:21;7.07;;;3.30;;
73136;SDS011;67767;45.636;11.756;2023-04-15T10:29:49;5.88;;;2.92;;
73136;SDS011;67767;45.636;11.756;2023-04-15T10:32:17;7.10;;;2.95;;
73136;SDS011;67767;45.636;11.756;2023-04-15T10:34:45;7.70;;;2.63;;
73136;SDS011;67767;45.636;11.756;2023-04-15T10:37:12;9.53;;;2.40;;
73136;SDS011;67767;45.636;11.756;2023-04-15T10:39:44;6.65;;;2.90;;
73136;SDS011;67767;45.636;11.756;2023-04-15T10:42:11;5.07;;;2.72;;
73136;SDS011;67767;45.636;11.756;2023-04-15T10:44:58;5.82;;;3.13;;
73136;SDS011;67767;45.636;11.756;2023-04-15T10:47:24;8.07;;;3.30;;
73136;SDS011;67767;45.636;11.756;2023-04-15T10:50:00;7.25;;;3.10;;
73136;SDS011;67767;45.636;11.756;2023-04-15T10:52:26;7.32;;;2.80;;
73136;SDS011;67767;45.636;11.756;2023-04-15T10:57:55;4.53;;;2.63;;
73136;SDS011;67767;45.636;11.756;2023-04-15T11:00:25;6.55;;;3.22;;
73136;SDS011;67767;45.636;11.756;2023-04-15T11:08:15;6.07;;;2.45;;
73136;SDS011;67767;45.636;11.756;2023-04-15T11:15:45;6.38;;;3.92;;
73136;SDS011;67767;45.636;11.756;2023-04-15T11:18:22;8.53;;;2.60;;
73136;SDS011;67767;45.636;11.756;2023-04-15T11:23:33;5.53;;;2.70;;
73136;SDS011;67767;45.636;11.756;2023-04-15T11:26:11;5.72;;;2.90;;
73136;SDS011;67767;45.636;11.756;2023-04-15T11:28:40;6.90;;;2.70;;
73136;SDS011;67767;45.636;11.756;2023-04-15T11:31:08;7.13;;;3.00;;
73136;SDS011;67767;45.636;11.756;2023-04-15T11:33:59;5.45;;;3.00;;
73136;SDS011;67767;45.636;11.756;2023-04-15T11:36:27;4.75;;;2.40;;
73136;SDS011;67767;45.636;11.756;2023-04-15T11:38:54;6.03;;;2.40;;
73136;SDS011;67767;45.636;11.756;2023-04-15T11:41:22;6.43;;;2.60;;
73136;SDS011;67767;45.636;11.756;2023-04-15T11:43:48;6.57;;;2.23;;
73136;SDS011;67767;45.636;11.756;2023-04-15T11:46:15;5.30;;;2.10;;
73136;SDS011;67767;45.636;11.756;2023-04-15T11:48:41;6.47;;;2.47;;
73136;SDS011;67767;45.636;11.756;2023-04-15T11:51:10;4.63;;;2.10;;
73136;SDS011;67767;45.636;11.756;2023-04-15T11:56:10;6.97;;;1.88;;
73136;SDS011;67767;45.636;11.756;2023-04-15T11:58:45;6.18;;;2.10;;
73136;SDS011;67767;45.636;11.756;2023-04-15T12:01:11;5.57;;;1.90;;
73136;SDS011;67767;45.636;11.756;2023-04-15T12:03:38;4.37;;;1.87;;
73136;SDS011;67767;45.636;11.756;2023-04-15T12:11:41;3.40;;;1.55;;
73136;SDS011;67767;45.636;11.756;2023-04-15T12:16:47;4.03;;;1.60;;
73136;SDS011;67767;45.636;11.756;2023-04-15T12:19:16;5.18;;;1.77;;
73136;SDS011;67767;45.636;11.756;2023-04-15T12:21:47;4.38;;;2.40;;
73136;SDS011;67767;45.636;11.756;2023-04-15T12:24:13;3.30;;;1.63;;
73136;SDS011;67767;45.636;11.756;2023-04-15T12:29:12;5.65;;;1.58;;
73136;SDS011;67767;45.636;11.756;2023-04-15T12:31:47;4.05;;;1.80;;
73136;SDS011;67767;45.636;11.756;2023-04-15T12:34:13;4.70;;;1.90;;
73136;SDS011;67767;45.636;11.756;2023-04-15T12:36:39;3.70;;;1.70;;
73136;SDS011;67767;45.636;11.756;2023-04-15T12:39:05;6.13;;;1.80;;
73136;SDS011;67767;45.636;11.756;2023-04-15T12:41:31;6.20;;;1.70;;
73136;SDS011;67767;45.636;11.756;2023-04-15T12:43:57;3.70;;;1.63;;
73136;SDS011;67767;45.636;11.756;2023-04-15T12:46:24;4.28;;;1.50;;
73136;SDS011;67767;45.636;11.756;2023-04-15T12:48:50;4.68;;;1.85;;
73136;SDS011;67767;45.636;11.756;2023-04-15T12:51:18;4.35;;;2.15;;
73136;SDS011;67767;45.636;11.756;2023-04-15T12:53:47;4.07;;;1.52;;
73136;SDS011;67767;45.636;11.756;2023-04-15T12:56:13;3.83;;;1.70;;
73136;SDS011;67767;45.636;11.756;2023-04-15T12:58:40;3.38;;;1.50;;
73136;SDS011;67767;45.636;11.756;2023-04-15T13:01:07;4.43;;;1.40;;
73136;SDS011;67767;45.636;11.756;2023-04-15T13:03:32;5.00;;;1.50;;
73136;SDS011;67767;45.636;11.756;2023-04-15T13:05:58;5.75;;;1.52;;
73136;SDS011;67767;45.636;11.756;2023-04-15T13:08:26;4.97;;;1.60;;
73136;SDS011;67767;45.636;11.756;2023-04-15T13:10:52;2.93;;;1.47;;
73136;SDS011;67767;45.636;11.756;2023-04-15T13:13:17;3.78;;;1.70;;
73136;SDS011;67767;45.636;11.756;2023-04-15T13:15:43;6.13;;;2.70;;
73136;SDS011;67767;45.636;11.756;2023-04-15T13:18:10;3.40;;;1.65;;
73136;SDS011;67767;45.636;11.756;2023-04-15T13:20:35;4.10;;;1.60;;
73136;SDS011;67767;45.636;11.756;2023-04-15T13:23:01;2.77;;;1.10;;
73136;SDS011;67767;45.636;11.756;2023-04-15T13:25:27;3.53;;;1.30;;
73136;SDS011;67767;45.636;11.756;2023-04-15T13:27:52;4.03;;;1.70;;
73136;SDS011;67767;45.636;11.756;2023-04-15T13:30:18;6.43;;;2.63;;
73136;SDS011;67767;45.636;11.756;2023-04-15T13:32:44;6.03;;;1.60;;
73136;SDS011;67767;45.636;11.756;2023-04-15T13:35:10;4.53;;;1.37;;
73136;SDS011;67767;45.636;11.756;2023-04-15T13:37:35;3.70;;;1.40;;
73136;SDS011;67767;45.636;11.756;2023-04-15T13:40:01;4.57;;;1.30;;
73136;SDS011;67767;45.636;11.756;2023-04-15T13:42:27;3.43;;;1.20;;
73136;SDS011;67767;45.636;11.756;2023-04-15T13:44:52;4.18;;;1.92;;
73136;SDS011;67767;45.636;11.756;2023-04-15T13:47:18;4.53;;;1.50;;
73136;SDS011;67767;45.636;11.756;2023-04-15T13:49:44;5.10;;;1.23;;
73136;SDS011;67767;45.636;11.756;2023-04-15T13:52:10;3.25;;;1.33;;
73136;SDS011;67767;45.636;11.756;2023-04-15T13:54:36;5.07;;;2.20;;
73136;SDS011;67767;45.636;11.756;2023-04-15T13:57:01;6.38;;;1.80;;
73136;SDS011;67767;45.636;11.756;2023-04-15T13:59:27;5.23;;;3.10;;
73136;SDS011;67767;45.636;11.756;2023-04-15T14:01:53;3.88;;;1.30;;
73136;SDS011;67767;45.636;11.756;2023-04-15T14:04:18;3.27;;;1.10;;
73136;SDS011;67767;45.636;11.756;2023-04-15T14:06:44;5.53;;;1.35;;
73136;SDS011;67767;45.636;11.756;2023-04-15T14:09:10;3.17;;;1.23;;
73136;SDS011;67767;45.636;11.756;2023-04-15T14:11:37;6.85;;;2.40;;
73136;SDS011;67767;45.636;11.756;2023-04-15T14:14:02;5.93;;;2.00;;
73136;SDS011;67767;45.636;11.756;2023-04-15T14:16:28;5.38;;;1.67;;
73136;SDS011;67767;45.636;11.756;2023-04-15T14:18:56;4.25;;;1.50;;
73136;SDS011;67767;45.636;11.756;2023-04-15T14:21:22;4.47;;;1.50;;
73136;SDS011;67767;45.636;11.756;2023-04-15T14:23:48;6.87;;;1.70;;
73136;SDS011;67767;45.636;11.756;2023-04-15T14:26:13;3.92;;;1.30;;
73136;SDS011;67767;45.636;11.756;2023-04-15T14:28:39;8.00;;;2.13;;
73136;SDS011;67767;45.636;11.756;2023-04-15T14:31:04;6.72;;;1.50;;
73136;SDS011;67767;45.636;11.756;2023-04-15T14:33:31;7.67;;;2.30;;
73136;SDS011;67767;45.636;11.756;2023-04-15T14:35:56;8.68;;;2.38;;
73136;SDS011;67767;45.636;11.756;2023-04-15T14:38:22;6.50;;;2.77;;
73136;SDS011;67767;45.636;11.756;2023-04-15T14:40:48;4.35;;;1.23;;
73136;SDS011;67767;45.636;11.756;2023-04-15T14:43:13;5.53;;;1.30;;
73136;SDS011;67767;45.636;11.756;2023-04-15T14:45:39;8.15;;;1.80;;
73136;SDS011;67767;45.636;11.756;2023-04-15T14:48:05;3.93;;;1.30;;
73136;SDS011;67767;45.636;11.756;2023-04-15T14:50:33;3.03;;;1.00;;
73136;SDS011;67767;45.636;11.756;2023-04-15T14:53:00;4.22;;;1.10;;
73136;SDS011;67767;45.636;11.756;2023-04-15T14:55:26;5.07;;;1.52;;
73136;SDS011;67767;45.636;11.756;2023-04-15T14:57:51;7.57;;;1.80;;
73136;SDS011;67767;45.636;11.756;2023-04-15T15:00:17;8.90;;;2.30;;
73136;SDS011;67767;45.636;11.756;2023-04-15T15:02:44;5.07;;;1.63;;